Time;durP1;ratioP1;P1;durP2;ratioP2;P2;SDS_P1;SDS_P2;PMS_P1;PMS_P2;Temp;Humidity;BMP_temperature;BMP_pressure;BME280_temperature;BME280_humidity;BME280_pressure;Samples;Min_cycle;Max_cycle;Signal;HPM_P1;HPM_P2
2022/03/09 00:01:02;;;;;;;19.00;8.70;;;;;;;5.44;51.94;99645.14;233049;1221;138898;-63
2022/03/09 00:06:05;;;;;;;19.20;9.10;;;;;;;5.41;51.50;99643.84;233040;1221;139182;-62
2022/03/09 00:11:09;;;;;;;32.90;16.70;;;;;;;5.37;51.60;99648.87;232982;1221;138534;-63
2022/03/09 00:16:12;;;;;;;40.20;23.20;;;;;;;5.34;51.83;99656.91;232919;1221;138885;-63
2022/03/09 00:21:16;;;;;;;51.70;27.00;;;;;;;5.26;51.34;99660.67;232771;1221;138489;-62
2022/03/09 00:26:19;;;;;;;50.90;27.70;;;;;;;5.16;51.46;99660.61;232932;1221;139320;-63
2022/03/09 00:31:23;;;;;;;54.10;28.80;;;;;;;5.08;51.42;99660.48;232859;1221;139466;-60
2022/03/09 00:36:26;;;;;;;55.60;31.00;;;;;;;5.00;51.33;99658.98;232743;1223;139300;-61
2022/03/09 00:41:29;;;;;;;66.90;31.10;;;;;;;4.92;51.33;99655.34;233062;1221;138780;-60
2022/03/09 00:46:32;;;;;;;60.50;33.70;;;;;;;4.82;51.45;99643.50;232927;1221;138696;-59
2022/03/09 00:51:36;;;;;;;61.20;34.50;;;;;;;4.77;51.65;99636.96;232867;1220;138679;-61
2022/03/09 00:56:39;;;;;;;66.60;35.70;;;;;;;4.69;51.43;99634.71;233047;1220;139126;-61
2022/03/09 01:01:42;;;;;;;67.80;37.00;;;;;;;4.64;51.67;99628.02;232869;1220;138836;-60
2022/03/09 01:06:45;;;;;;;72.70;39.90;;;;;;;4.60;51.89;99621.80;233021;1220;138998;-59
2022/03/09 01:11:48;;;;;;;69.60;39.20;;;;;;;4.56;51.76;99622.98;233068;1220;139110;-60
2022/03/09 01:16:51;;;;;;;80.30;43.90;;;;;;;4.54;52.11;99625.49;232947;1220;139584;-61
2022/03/09 01:21:54;;;;;;;70.40;39.90;;;;;;;4.55;52.18;99621.92;232752;1221;138421;-59
2022/03/09 01:26:57;;;;;;;75.20;41.80;;;;;;;4.53;52.15;99623.06;232899;1221;138570;-64
2022/03/09 01:32:00;;;;;;;76.20;42.70;;;;;;;4.48;52.47;99614.05;232689;1222;139057;-60
2022/03/09 01:37:03;;;;;;;72.40;40.90;;;;;;;4.46;52.46;99617.61;232988;1221;139007;-62
2022/03/09 01:42:07;;;;;;;76.60;41.20;;;;;;;4.42;52.45;99611.05;232916;1220;139131;-62
2022/03/09 01:47:10;;;;;;;79.10;42.10;;;;;;;4.37;52.60;99610.31;233011;1220;139388;-60
2022/03/09 01:52:13;;;;;;;79.20;42.00;;;;;;;4.33;52.70;99611.31;232697;1222;139727;-58
2022/03/09 01:57:16;;;;;;;77.90;42.00;;;;;;;4.29;52.74;99605.98;232744;1222;139017;-58
2022/03/09 02:02:19;;;;;;;83.50;42.90;;;;;;;4.28;52.83;99591.26;232825;1222;139060;-63
2022/03/09 02:09:41;;;;;;;78.50;42.90;;;;;;;4.27;52.77;99587.42;232467;1222;140165;-61
2022/03/09 02:12:46;;;;;;;77.40;43.30;;;;;;;4.24;52.97;99589.23;232760;1221;138903;-62
2022/03/09 02:17:49;;;;;;;78.40;43.30;;;;;;;4.22;53.08;99590.55;232928;1221;139308;-62
2022/03/09 02:22:56;;;;;;;83.20;45.10;;;;;;;4.18;52.91;99589.41;232918;1222;138536;-63
2022/03/09 02:28:01;;;;;;;86.70;45.40;;;;;;;4.18;53.25;99581.52;232839;1221;139026;-63
2022/03/09 02:33:04;;;;;;;84.00;45.60;;;;;;;4.18;53.02;99575.73;232694;1222;140826;-61
2022/03/09 02:38:09;;;;;;;86.80;44.90;;;;;;;4.12;53.20;99576.06;232938;1221;139539;-62
2022/03/09 02:43:12;;;;;;;86.40;47.00;;;;;;;4.10;53.39;99576.11;232864;1221;139235;-62
2022/03/09 02:48:15;;;;;;;85.10;47.20;;;;;;;4.11;53.52;99576.08;233074;1220;138757;-63
2022/03/09 02:53:18;;;;;;;89.00;48.60;;;;;;;4.14;53.52;99576.89;233157;1220;138886;-63
2022/03/09 02:58:21;;;;;;;88.30;45.00;;;;;;;4.15;53.46;99584.58;232836;1220;138741;-62
2022/03/09 03:03:24;;;;;;;83.90;45.70;;;;;;;4.12;53.42;99591.70;233064;1220;139535;-61
2022/03/09 03:08:27;;;;;;;85.70;47.20;;;;;;;4.09;53.51;99595.28;233043;1220;138415;-62
2022/03/09 03:13:31;;;;;;;87.10;45.20;;;;;;;4.07;53.79;99600.25;232649;1222;139000;-64
2022/03/09 03:18:34;;;;;;;79.50;43.70;;;;;;;4.03;53.69;99596.67;232741;1222;139188;-64
2022/03/09 03:23:37;;;;;;;86.30;45.00;;;;;;;3.98;53.93;99593.28;232638;1222;139281;-65
2022/03/09 03:28:40;;;;;;;78.90;41.80;;;;;;;3.98;54.09;99584.84;232836;1222;138676;-67
2022/03/09 03:33:43;;;;;;;75.60;42.20;;;;;;;4.00;54.10;99587.25;232801;1220;138785;-62
2022/03/09 03:38:46;;;;;;;79.80;42.20;;;;;;;4.02;54.10;99584.20;232566;1222;138436;-61
2022/03/09 03:43:49;;;;;;;80.10;42.40;;;;;;;3.99;54.35;99593.10;232939;1221;139136;-60
2022/03/09 03:48:51;;;;;;;80.10;42.20;;;;;;;3.96;54.39;99608.08;232955;1220;139046;-60
2022/03/09 03:53:54;;;;;;;79.30;42.30;;;;;;;3.94;54.52;99603.21;232858;1221;139521;-60
2022/03/09 03:58:58;;;;;;;84.10;43.90;;;;;;;3.97;54.39;99600.34;233109;1221;138632;-60
2022/03/09 04:04:01;;;;;;;82.70;45.10;;;;;;;3.99;54.48;99604.13;232948;1220;139282;-62
2022/03/09 04:09:04;;;;;;;86.70;45.70;;;;;;;3.96;54.49;99605.43;232964;1221;138951;-64
2022/03/09 04:14:07;;;;;;;91.40;44.60;;;;;;;3.95;54.41;99608.45;232700;1221;139466;-62
2022/03/09 04:19:10;;;;;;;85.40;45.90;;;;;;;3.90;54.36;99608.94;232986;1221;139895;-62
2022/03/09 04:24:13;;;;;;;85.20;45.80;;;;;;;3.88;54.57;99606.55;232926;1221;139229;-64
2022/03/09 04:29:16;;;;;;;85.80;44.80;;;;;;;3.84;54.64;99606.65;233095;1221;140748;-62
2022/03/09 04:34:19;;;;;;;92.70;47.10;;;;;;;3.80;54.46;99603.05;232840;1221;138927;-60
2022/03/09 04:39:22;;;;;;;88.40;44.90;;;;;;;3.81;54.65;99602.35;232923;1220;139375;-59
2022/03/09 04:44:25;;;;;;;95.40;47.40;;;;;;;3.76;54.91;99595.07;233024;1220;139285;-60
2022/03/09 04:49:28;;;;;;;87.40;45.40;;;;;;;3.76;54.97;99599.83;232867;1221;139089;-62
2022/03/09 04:54:32;;;;;;;90.30;46.70;;;;;;;3.75;55.20;99597.05;232940;1221;138761;-62
2022/03/09 04:59:35;;;;;;;91.00;49.10;;;;;;;3.76;55.19;99598.05;232831;1221;139459;-62
2022/03/09 05:04:38;;;;;;;100.60;48.80;;;;;;;3.82;55.39;99596.86;232869;1221;139085;-63
2022/03/09 05:09:41;;;;;;;104.70;53.10;;;;;;;3.85;55.37;99594.34;232862;1222;139705;-62
2022/03/09 05:14:44;;;;;;;91.00;49.10;;;;;;;3.87;55.61;99600.41;232904;1220;140744;-62
2022/03/09 05:19:47;;;;;;;94.40;48.10;;;;;;;3.86;55.30;99603.95;233032;1221;138676;-65
2022/03/09 05:24:51;;;;;;;99.60;49.70;;;;;;;3.83;55.71;99601.23;232796;1221;139767;-64
2022/03/09 05:29:54;;;;;;;88.80;47.60;;;;;;;3.84;55.88;99601.20;232694;1222;138410;-62
2022/03/09 05:34:57;;;;;;;87.00;47.90;;;;;;;3.81;55.91;99607.94;233010;1218;140764;-64
2022/03/09 05:40:00;;;;;;;95.30;48.50;;;;;;;3.80;55.76;99618.14;232999;1221;138818;-61
2022/03/09 05:45:08;;;;;;;91.20;46.40;;;;;;;3.78;55.88;99630.30;232741;1221;140178;-64
2022/03/09 05:50:22;;;;;;;94.90;48.70;;;;;;;3.78;55.83;99639.05;232959;1221;139195;-62
2022/03/09 05:55:25;;;;;;;86.80;45.70;;;;;;;3.78;56.11;99641.89;232867;1221;139727;-63
2022/03/09 06:00:28;;;;;;;90.50;49.90;;;;;;;3.75;56.16;99643.20;233019;1221;139293;-62
2022/03/09 06:05:32;;;;;;;83.20;43.70;;;;;;;3.76;56.26;99641.40;232851;1221;138882;-62
2022/03/09 06:10:34;;;;;;;84.10;45.30;;;;;;;3.73;56.33;99641.84;232959;1221;139312;-62
2022/03/09 06:15:37;;;;;;;83.20;45.10;;;;;;;3.70;56.34;99639.11;232776;1221;139764;-63
2022/03/09 06:20:41;;;;;;;98.60;51.60;;;;;;;3.68;56.36;99642.30;232722;1220;140215;-65
2022/03/09 06:25:51;;;;;;;96.40;47.90;;;;;;;3.75;56.67;99640.02;232698;1221;139608;-62
2022/03/09 06:30:54;;;;;;;109.20;53.80;;;;;;;3.84;56.63;99644.73;232890;1220;139552;-62
2022/03/09 06:35:57;;;;;;;102.30;50.30;;;;;;;3.94;56.60;99640.45;232789;1220;139330;-62
2022/03/09 06:41:00;;;;;;;100.40;52.60;;;;;;;3.95;56.47;99651.29;233106;1220;138881;-62
2022/03/09 06:46:04;;;;;;;94.10;51.40;;;;;;;3.94;56.60;99660.46;232957;1220;140020;-59
2022/03/09 06:51:07;;;;;;;94.30;50.90;;;;;;;3.92;56.86;99661.74;232909;1220;141994;-59
2022/03/09 06:56:13;;;;;;;;;;;;;;;3.90;56.90;99663.52;232916;1220;139139;-62
2022/03/09 07:01:16;;;;;;;96.20;49.90;;;;;;;3.86;57.03;99661.70;233123;1220;125239;-60
2022/03/09 07:06:20;;;;;;;95.30;50.40;;;;;;;3.87;57.04;99662.73;232856;1221;139522;-60
2022/03/09 07:11:23;;;;;;;95.00;51.60;;;;;;;3.91;57.13;99664.58;232984;1221;139689;-60
2022/03/09 07:16:26;;;;;;;96.00;51.60;;;;;;;3.94;57.17;99661.33;232948;1220;139697;-60
2022/03/09 07:21:29;;;;;;;104.70;56.20;;;;;;;3.96;57.35;99664.95;232830;1221;140679;-59
2022/03/09 07:26:33;;;;;;;96.50;53.60;;;;;;;3.99;57.35;99657.50;232889;1221;139176;-60
2022/03/09 07:31:36;;;;;;;101.60;55.40;;;;;;;4.01;57.34;99653.77;232856;1221;139033;-58
2022/03/09 07:36:39;;;;;;;104.40;56.00;;;;;;;4.06;57.61;99657.86;232848;1221;139054;-65
2022/03/09 07:41:42;;;;;;;98.70;52.40;;;;;;;4.08;57.31;99657.98;232800;1221;139583;-63
2022/03/09 07:46:45;;;;;;;101.40;52.20;;;;;;;4.08;57.21;99660.65;233021;1221;138875;-63
2022/03/09 07:51:49;;;;;;;104.50;53.10;;;;;;;4.04;57.20;99648.27;232769;1221;138984;-64
2022/03/09 07:56:52;;;;;;;96.60;52.90;;;;;;;4.01;57.35;99635.34;232916;1220;138935;-68
2022/03/09 08:01:55;;;;;;;106.90;57.40;;;;;;;4.06;57.39;99635.23;232849;1221;151640;-63
2022/03/09 08:06:58;;;;;;;103.30;55.70;;;;;;;4.13;57.13;99629.06;233054;1220;138993;-64
2022/03/09 08:12:03;;;;;;;111.50;56.80;;;;;;;4.19;57.29;99635.92;232836;1221;140674;-62
2022/03/09 08:17:06;;;;;;;104.60;58.50;;;;;;;4.19;57.20;99637.69;232940;1221;139661;-62
2022/03/09 08:22:09;;;;;;;114.50;58.20;;;;;;;4.19;57.13;99643.80;232786;1221;138896;-63
2022/03/09 08:27:12;;;;;;;103.90;57.40;;;;;;;4.23;56.87;99640.72;232925;1220;139091;-62
2022/03/09 08:32:16;;;;;;;110.70;60.00;;;;;;;4.24;57.03;99626.48;232801;1222;139174;-62
2022/03/09 08:37:19;;;;;;;115.50;63.40;;;;;;;4.15;57.12;99615.83;232656;1221;138996;-61
2022/03/09 08:42:22;;;;;;;108.60;60.50;;;;;;;4.21;57.16;99606.89;232921;1221;139265;-60
2022/03/09 08:47:25;;;;;;;108.20;60.10;;;;;;;4.28;57.52;99607.77;232998;1220;138862;-62
2022/03/09 08:52:28;;;;;;;99.60;55.40;;;;;;;4.33;57.20;99605.17;232864;1221;138948;-59
2022/03/09 08:57:31;;;;;;;207.90;116.40;;;;;;;4.29;56.89;99602.81;232864;1220;210499;-60
2022/03/09 09:02:34;;;;;;;129.40;67.60;;;;;;;4.35;57.34;99607.21;232949;1221;139620;-60
2022/03/09 09:07:37;;;;;;;107.70;57.00;;;;;;;4.46;57.57;99603.23;232838;1221;139487;-64
2022/03/09 09:12:40;;;;;;;112.90;61.80;;;;;;;4.52;57.51;99599.34;232814;1221;139474;-64
2022/03/09 09:17:44;;;;;;;105.50;57.60;;;;;;;4.63;57.36;99594.83;232837;1221;140058;-62
2022/03/09 09:23:07;;;;;;;106.30;56.10;;;;;;;4.71;57.04;99591.79;232956;1221;139358;-65
2022/03/09 09:28:10;;;;;;;127.90;71.40;;;;;;;4.72;56.85;99590.86;232699;1222;138918;-68
2022/03/09 09:33:13;;;;;;;105.70;59.00;;;;;;;4.77;57.35;99588.80;232743;1221;140313;-67
2022/03/09 09:38:17;;;;;;;97.50;58.00;;;;;;;4.88;57.41;99591.98;232808;1222;139570;-69
2022/03/09 09:43:24;;;;;;;106.70;56.20;;;;;;;4.95;56.88;99588.24;232808;1221;139153;-68
2022/03/09 09:48:27;;;;;;;101.10;58.00;;;;;;;5.07;56.97;99585.25;232762;1221;139586;-67
2022/03/09 09:53:35;;;;;;;294.00;184.00;;;;;;;5.21;57.17;99580.58;232813;1221;139007;-67
2022/03/09 09:58:43;;;;;;;102.80;57.50;;;;;;;5.47;57.36;99575.73;232960;1221;139310;-68
2022/03/09 10:03:46;;;;;;;101.00;54.50;;;;;;;5.68;57.00;99569.75;232806;1221;139117;-67
2022/03/09 10:08:59;;;;;;;105.40;55.00;;;;;;;5.79;56.59;99569.88;232826;1221;139530;-67
2022/03/09 10:14:02;;;;;;;109.70;58.60;;;;;;;5.88;56.68;99571.53;232839;1221;151890;-62
2022/03/09 10:19:06;;;;;;;90.60;49.40;;;;;;;6.21;56.80;99564.58;232903;1221;138846;-64
2022/03/09 10:24:09;;;;;;;80.10;43.40;;;;;;;6.51;56.53;99563.69;232805;1221;140936;-61
2022/03/09 10:29:18;;;;;;;79.80;41.70;;;;;;;6.70;56.33;99557.52;233000;1221;139339;-62
2022/03/09 10:34:24;;;;;;;87.40;44.30;;;;;;;6.88;55.99;99553.09;232717;1221;138701;-63
2022/03/09 10:39:30;;;;;;;83.50;44.20;;;;;;;7.19;55.78;99553.84;232908;1221;138787;-62
2022/03/09 10:44:43;;;;;;;;;;;;;;;7.48;55.65;99547.03;232950;1221;139205;-62
2022/03/09 10:49:46;;;;;;;66.00;36.60;;;;;;;7.80;55.35;99543.55;232991;1221;124896;-63
2022/03/09 10:54:51;;;;;;;68.60;37.70;;;;;;;8.03;55.05;99530.52;232892;1221;139356;-62
2022/03/09 10:59:55;;;;;;;49.20;27.30;;;;;;;8.34;54.88;99529.86;232923;1221;140944;-63
2022/03/09 11:05:17;;;;;;;33.90;18.50;;;;;;;8.57;54.30;99529.40;232973;1221;139110;-61
2022/03/09 11:10:20;;;;;;;28.90;16.40;;;;;;;8.85;54.23;99525.08;233017;1221;139364;-61
2022/03/09 11:15:24;;;;;;;28.30;16.20;;;;;;;9.01;53.76;99527.35;232719;1221;138457;-61
2022/03/09 11:20:27;;;;;;;23.60;12.80;;;;;;;9.06;53.05;99529.56;232904;1221;140421;-61
2022/03/09 11:25:31;;;;;;;26.80;14.50;;;;;;;9.01;52.47;99536.33;232804;1220;142173;-62
2022/03/09 11:30:34;;;;;;;21.30;10.80;;;;;;;9.05;52.30;99529.23;232726;1222;139708;-61
2022/03/09 11:35:40;;;;;;;21.00;8.60;;;;;;;9.08;52.08;99523.66;232811;1221;139297;-59
2022/03/09 11:41:03;;;;;;;;;;;;;;;9.10;51.68;99521.95;232915;1221;138693;-59
2022/03/09 11:46:06;;;;;;;13.60;6.60;;;;;;;9.13;51.39;99526.22;232862;1221;125421;-60
2022/03/09 11:51:10;;;;;;;14.00;6.80;;;;;;;9.15;50.80;99525.05;232824;1221;139107;-61
2022/03/09 11:56:32;;;;;;;15.20;7.00;;;;;;;9.16;50.40;99523.77;232811;1221;138626;-61
2022/03/09 12:02:00;;;;;;;12.80;6.10;;;;;;;9.11;49.81;99522.80;232825;1221;138881;-61
2022/03/09 12:07:03;;;;;;;19.60;9.80;;;;;;;9.08;49.41;99520.98;232841;1222;139213;-61
2022/03/09 12:12:09;;;;;;;293.20;182.30;;;;;;;9.10;49.04;99522.30;232518;1222;139655;-60
2022/03/09 12:17:27;;;;;;;10.80;6.50;;;;;;;9.10;48.71;99521.42;232841;1221;139398;-62
2022/03/09 12:22:59;;;;;;;10.30;5.60;;;;;;;9.07;48.07;99512.69;232804;1221;139378;-62
2022/03/09 12:28:22;;;;;;;11.20;5.30;;;;;;;9.04;47.74;99507.91;232831;1221;138974;-62
2022/03/09 12:33:31;;;;;;;13.30;5.60;;;;;;;9.01;47.31;99502.20;232693;1221;138806;-61
2022/03/09 12:38:35;;;;;;;9.70;5.20;;;;;;;8.96;47.23;99505.24;232834;1221;138835;-62
2022/03/09 12:43:51;;;;;;;12.30;5.00;;;;;;;8.94;46.82;99498.79;232724;1222;138478;-62
2022/03/09 12:49:11;;;;;;;11.80;5.40;;;;;;;8.94;46.63;99500.61;232781;1221;138670;-60
2022/03/09 12:54:28;;;;;;;9.60;4.60;;;;;;;8.98;46.45;99499.84;232760;1222;139939;-62
2022/03/09 12:59:31;;;;;;;10.30;5.20;;;;;;;8.99;45.91;99501.58;232931;1221;138653;-62
2022/03/09 13:04:34;;;;;;;282.00;174.00;;;;;;;9.00;45.88;99504.70;232834;1221;138800;-61
2022/03/09 13:09:41;;;;;;;19.90;10.80;;;;;;;9.07;45.35;99511.82;232801;1221;139448;-62
2022/03/09 13:14:52;;;;;;;15.00;6.70;;;;;;;9.16;45.19;99505.73;232874;1221;139235;-62
2022/03/09 13:19:55;;;;;;;10.50;5.30;;;;;;;9.12;44.72;99507.32;232795;1222;138542;-62
2022/03/09 13:25:00;;;;;;;206.80;130.40;;;;;;;9.06;44.79;99511.70;232776;1221;139030;-62
2022/03/09 13:30:12;;;;;;;22.10;10.70;;;;;;;9.07;44.83;99512.86;232840;1220;139584;-61
2022/03/09 13:35:20;;;;;;;14.50;6.30;;;;;;;9.07;44.92;99511.10;232703;1221;139161;-61
2022/03/09 13:40:23;;;;;;;15.60;6.40;;;;;;;9.07;44.61;99509.70;232815;1221;138264;-60
2022/03/09 13:45:28;;;;;;;8.50;4.80;;;;;;;9.07;44.49;99504.38;232965;1220;140497;-61
2022/03/09 13:50:38;;;;;;;11.40;5.00;;;;;;;9.10;44.43;99505.69;232785;1221;139259;-62
2022/03/09 13:55:44;;;;;;;8.60;5.10;;;;;;;9.13;44.13;99500.38;232734;1221;140180;-63
2022/03/09 14:00:47;;;;;;;10.30;5.20;;;;;;;9.18;44.03;99493.91;232860;1221;138864;-63
2022/03/09 14:05:53;;;;;;;18.00;6.00;;;;;;;9.20;43.89;99494.56;232863;1220;138689;-63
2022/03/09 14:11:13;;;;;;;10.80;5.60;;;;;;;9.21;43.78;99493.77;232991;1221;138882;-64
2022/03/09 14:16:16;;;;;;;11.90;5.60;;;;;;;9.20;43.54;99501.79;232771;1221;138992;-64
2022/03/09 14:21:19;;;;;;;156.90;98.40;;;;;;;9.20;43.42;99498.79;232853;1221;139742;-64
2022/03/09 14:26:22;;;;;;;16.90;8.80;;;;;;;9.24;43.69;99497.71;232824;1220;139535;-64
2022/03/09 14:31:26;;;;;;;11.60;6.40;;;;;;;9.22;43.51;99496.00;232878;1221;138812;-65
2022/03/09 14:36:30;;;;;;;347.20;223.40;;;;;;;9.20;43.88;99498.98;232754;1221;139837;-63
2022/03/09 14:41:34;;;;;;;19.00;10.50;;;;;;;9.23;43.82;99499.19;232892;1221;139557;-62
2022/03/09 14:46:37;;;;;;;15.30;7.50;;;;;;;9.21;43.75;99503.14;232768;1221;139567;-64
2022/03/09 14:51:40;;;;;;;12.30;6.50;;;;;;;9.16;43.62;99506.77;232811;1221;138653;-64
2022/03/09 14:56:43;;;;;;;10.20;6.30;;;;;;;9.14;43.88;99507.92;232786;1220;138868;-64
2022/03/09 15:01:46;;;;;;;13.00;6.80;;;;;;;9.14;43.86;99505.44;232983;1220;139655;-64
2022/03/09 15:06:50;;;;;;;18.00;8.00;;;;;;;9.13;43.75;99502.16;232774;1221;139898;-64
2022/03/09 15:11:53;;;;;;;15.00;6.80;;;;;;;9.07;43.94;99503.50;232661;1222;139464;-66
2022/03/09 15:16:56;;;;;;;17.70;6.90;;;;;;;9.06;43.78;99499.48;232978;1221;139251;-65
2022/03/09 15:22:00;;;;;;;154.30;88.00;;;;;;;9.07;43.68;99498.02;232870;1221;139063;-64
2022/03/09 15:27:03;;;;;;;33.20;21.10;;;;;;;9.10;44.07;99501.75;232899;1220;139546;-65
2022/03/09 15:32:06;;;;;;;128.10;85.20;;;;;;;9.15;44.01;99511.43;232662;1222;139464;-63
2022/03/09 15:37:10;;;;;;;26.20;15.30;;;;;;;9.21;44.23;99511.86;232427;1222;139481;-63
2022/03/09 15:42:13;;;;;;;17.60;8.10;;;;;;;9.20;44.01;99523.20;232490;1222;138824;-63
2022/03/09 15:47:17;;;;;;;16.50;7.80;;;;;;;9.14;43.77;99533.95;233031;1221;138715;-63
2022/03/09 15:52:20;;;;;;;58.80;37.00;;;;;;;9.07;43.85;99533.08;232910;1220;138166;-63
2022/03/09 15:57:24;;;;;;;41.70;23.00;;;;;;;9.22;44.94;99536.42;232702;1221;139492;-63
2022/03/09 16:02:26;;;;;;;15.80;9.80;;;;;;;9.28;44.21;99539.65;232893;1220;139406;-64
2022/03/09 16:07:30;;;;;;;17.50;9.80;;;;;;;9.15;44.62;99547.71;232812;1220;138811;-64
2022/03/09 16:12:34;;;;;;;19.50;9.90;;;;;;;9.00;45.05;99554.80;232700;1221;139157;-64
2022/03/09 16:17:38;;;;;;;707.80;508.00;;;;;;;8.83;45.75;99558.46;233010;1221;139479;-64
2022/03/09 16:22:42;;;;;;;49.20;30.80;;;;;;;8.89;46.79;99557.61;232753;1221;139336;-61
2022/03/09 16:27:45;;;;;;;22.30;13.60;;;;;;;8.90;46.73;99563.80;232811;1221;139254;-62
2022/03/09 16:32:48;;;;;;;22.20;12.40;;;;;;;8.78;46.96;99565.02;232877;1220;138848;-64
2022/03/09 16:37:52;;;;;;;21.80;11.80;;;;;;;8.67;47.11;99571.02;232709;1221;138916;-62
2022/03/09 16:42:55;;;;;;;29.70;18.90;;;;;;;8.62;47.46;99573.20;232776;1221;138967;-63
2022/03/09 16:47:58;;;;;;;25.00;14.30;;;;;;;8.64;47.86;99579.81;232654;1221;138913;-63
2022/03/09 16:53:03;;;;;;;23.80;13.80;;;;;;;8.60;47.73;99579.14;232749;1220;140190;-64
2022/03/09 16:58:06;;;;;;;85.00;52.50;;;;;;;8.57;48.13;99579.80;232558;1222;139212;-62
2022/03/09 17:03:09;;;;;;;53.80;26.20;;;;;;;8.69;48.53;99586.66;232947;1221;138586;-63
2022/03/09 17:08:12;;;;;;;27.60;14.50;;;;;;;8.66;48.09;99589.28;232798;1221;138935;-63
2022/03/09 17:13:15;;;;;;;25.60;12.50;;;;;;;8.60;47.90;99597.69;232799;1221;138738;-64
2022/03/09 17:18:18;;;;;;;22.70;11.60;;;;;;;8.52;47.99;99603.52;232936;1221;139891;-64
2022/03/09 17:23:21;;;;;;;23.20;12.60;;;;;;;8.47;48.04;99607.49;232913;1221;139271;-62
2022/03/09 17:28:30;;;;;;;20.70;10.90;;;;;;;8.42;48.04;99606.98;232680;1220;138958;-64
2022/03/09 17:33:36;;;;;;;;;;;;;;;8.39;48.07;99609.95;232881;1221;138982;-64
2022/03/09 17:38:39;;;;;;;21.90;12.40;;;;;;;8.36;48.12;99610.24;232762;1221;126042;-63
2022/03/09 17:43:43;;;;;;;22.10;12.50;;;;;;;8.35;48.20;99618.05;232748;1220;139277;-64
2022/03/09 17:48:45;;;;;;;20.40;11.90;;;;;;;8.35;48.28;99623.71;232827;1221;139369;-63
2022/03/09 17:53:50;;;;;;;19.70;11.50;;;;;;;8.33;48.46;99636.34;232665;1222;139086;-63
2022/03/09 17:58:53;;;;;;;17.10;9.80;;;;;;;8.31;48.44;99637.33;232999;1221;138726;-64
2022/03/09 18:03:58;;;;;;;19.90;9.50;;;;;;;8.29;48.45;99642.16;232687;1221;139068;-64
2022/03/09 18:09:01;;;;;;;15.90;9.60;;;;;;;8.26;48.64;99642.65;232948;1221;139295;-63
2022/03/09 18:14:22;;;;;;;16.70;9.80;;;;;;;8.25;48.62;99647.46;233000;1221;140009;-63
2022/03/09 18:19:26;;;;;;;22.00;12.10;;;;;;;8.22;48.70;99649.52;232644;1221;138997;-63
2022/03/09 18:24:29;;;;;;;30.40;14.60;;;;;;;8.20;48.71;99657.75;232744;1221;139383;-62
2022/03/09 18:29:33;;;;;;;544.90;409.70;;;;;;;8.19;48.85;99662.58;233121;1220;138968;-62
2022/03/09 18:34:36;;;;;;;33.50;21.20;;;;;;;8.31;49.63;99677.45;232628;1221;139434;-62
2022/03/09 18:39:39;;;;;;;22.70;12.40;;;;;;;8.31;49.31;99684.69;232747;1221;140994;-63
2022/03/09 18:44:44;;;;;;;20.90;11.10;;;;;;;8.23;49.52;99685.57;232765;1221;139603;-63
2022/03/09 18:49:47;;;;;;;21.00;11.40;;;;;;;8.14;49.68;99693.56;232926;1220;139706;-62
2022/03/09 18:54:50;;;;;;;22.30;10.30;;;;;;;8.03;49.88;99700.19;232766;1221;140284;-62
2022/03/09 18:59:53;;;;;;;20.90;11.00;;;;;;;7.93;50.12;99710.31;232807;1220;139720;-63
2022/03/09 19:04:56;;;;;;;19.80;10.80;;;;;;;7.86;50.26;99718.89;232539;1221;139543;-63
2022/03/09 19:10:00;;;;;;;16.50;10.20;;;;;;;7.78;50.52;99725.35;232814;1221;139200;-62
2022/03/09 19:15:04;;;;;;;22.50;9.60;;;;;;;7.69;50.75;99737.57;232934;1220;138872;-63
2022/03/09 19:20:07;;;;;;;17.80;8.80;;;;;;;7.58;51.15;99742.23;232857;1220;138303;-63
2022/03/09 19:25:14;;;;;;;14.20;8.10;;;;;;;7.51;51.50;99748.86;232572;1220;142084;-63
2022/03/09 19:30:31;;;;;;;263.80;199.00;;;;;;;7.42;53.08;99764.21;232620;1221;138745;-63
2022/03/09 19:35:35;;;;;;;22.70;14.50;;;;;;;7.81;53.40;99773.14;232888;1220;139850;-62
2022/03/09 19:40:38;;;;;;;15.50;8.60;;;;;;;7.75;52.47;99775.30;232561;1220;139448;-62
2022/03/09 19:45:41;;;;;;;15.30;8.10;;;;;;;7.57;52.79;99777.95;232799;1220;139057;-63
2022/03/09 19:50:44;;;;;;;15.00;8.00;;;;;;;7.40;52.80;99781.58;232815;1221;140235;-62
2022/03/09 19:55:48;;;;;;;15.40;8.30;;;;;;;7.26;53.01;99786.48;232768;1220;139896;-63
2022/03/09 20:00:52;;;;;;;15.40;8.90;;;;;;;7.15;53.52;99793.45;232790;1221;140071;-62
2022/03/09 20:05:56;;;;;;;44.80;29.60;;;;;;;7.03;54.06;99808.50;232860;1220;139339;-63
2022/03/09 20:10:59;;;;;;;50.50;32.90;;;;;;;6.84;54.61;99818.00;232810;1221;138970;-62
2022/03/09 20:16:02;;;;;;;52.50;35.00;;;;;;;6.68;54.91;99823.13;232951;1220;139765;-62
2022/03/09 20:21:05;;;;;;;48.10;32.30;;;;;;;6.53;55.36;99828.91;232898;1221;139742;-61
2022/03/09 20:26:09;;;;;;;46.00;31.30;;;;;;;6.39;55.58;99831.47;232372;1221;151133;-61
2022/03/09 20:31:12;;;;;;;47.90;31.20;;;;;;;6.24;55.97;99838.30;232821;1221;139180;-60
2022/03/09 20:36:15;;;;;;;46.10;31.20;;;;;;;6.14;56.34;99847.41;232666;1222;138995;-61
2022/03/09 20:41:18;;;;;;;44.30;30.20;;;;;;;6.06;56.72;99850.47;232839;1220;139909;-62
2022/03/09 20:46:23;;;;;;;46.40;31.00;;;;;;;5.99;56.99;99860.74;232794;1221;138857;-62
2022/03/09 20:51:26;;;;;;;44.40;28.60;;;;;;;5.92;57.11;99864.97;232750;1221;139244;-61
2022/03/09 20:56:29;;;;;;;41.00;27.70;;;;;;;5.88;57.35;99864.91;232746;1221;138839;-62
2022/03/09 21:01:32;;;;;;;38.90;25.90;;;;;;;5.87;57.50;99870.56;232988;1221;141412;-62
2022/03/09 21:06:39;;;;;;;41.20;26.30;;;;;;;5.86;57.69;99872.34;233423;1220;139551;-62
2022/03/09 21:11:42;;;;;;;38.50;25.40;;;;;;;5.87;57.68;99880.59;233430;1220;139579;-62
2022/03/09 21:16:45;;;;;;;34.00;23.00;;;;;;;5.88;57.94;99890.44;233387;1220;139602;-62
2022/03/09 21:21:49;;;;;;;29.60;20.20;;;;;;;5.85;58.05;99895.64;233415;1220;139076;-59
2022/03/09 21:26:52;;;;;;;23.30;16.30;;;;;;;5.79;57.79;99900.55;233333;1220;139663;-61
2022/03/09 21:31:55;;;;;;;19.60;13.50;;;;;;;5.71;57.50;99902.19;233427;1220;139273;-62
2022/03/09 21:36:58;;;;;;;21.90;15.00;;;;;;;5.62;57.78;99904.92;233474;1220;138632;-63
2022/03/09 21:42:01;;;;;;;22.70;14.00;;;;;;;5.57;57.77;99907.16;233290;1220;138497;-61
2022/03/09 21:47:04;;;;;;;23.60;15.50;;;;;;;5.50;57.78;99916.86;233556;1220;138694;-62
2022/03/09 21:52:07;;;;;;;22.90;15.50;;;;;;;5.44;58.04;99915.77;233455;1220;139454;-62
2022/03/09 21:57:10;;;;;;;25.20;16.00;;;;;;;5.42;57.96;99925.67;233428;1220;140923;-64
2022/03/09 22:02:14;;;;;;;23.60;15.50;;;;;;;5.38;57.67;99931.25;233442;1220;138627;-61
2022/03/09 22:07:17;;;;;;;33.10;22.80;;;;;;;5.34;57.95;99936.81;233300;1222;139012;-60
2022/03/09 22:12:21;;;;;;;29.70;17.80;;;;;;;5.37;57.82;99943.05;233388;1221;138678;-59
2022/03/09 22:17:24;;;;;;;26.90;17.20;;;;;;;5.30;57.47;99945.02;233501;1220;138704;-61
2022/03/09 22:22:27;;;;;;;25.10;17.10;;;;;;;5.23;57.50;99944.31;232885;1221;139192;-61
2022/03/09 22:27:30;;;;;;;27.70;18.20;;;;;;;5.16;57.27;99947.65;232785;1221;138863;-60
2022/03/09 22:32:34;;;;;;;31.10;19.40;;;;;;;5.08;57.12;99955.42;233325;1220;138954;-61
2022/03/09 22:37:37;;;;;;;35.10;21.50;;;;;;;5.01;57.47;99960.17;233413;1221;138542;-61
2022/03/09 22:42:41;;;;;;;34.70;22.30;;;;;;;4.92;57.36;99960.55;233154;1220;139083;-60
2022/03/09 22:47:46;;;;;;;29.40;18.40;;;;;;;4.86;57.31;99968.61;233346;1220;139099;-63
2022/03/09 22:52:51;;;;;;;30.50;19.00;;;;;;;4.81;56.98;99974.55;233481;1220;138647;-61
2022/03/09 22:57:55;;;;;;;32.90;20.20;;;;;;;4.74;57.13;99983.15;233391;1220;138802;-61
2022/03/09 23:02:58;;;;;;;35.80;22.50;;;;;;;4.71;57.28;99993.58;233305;1221;139076;-62